Time;durP1;ratioP1;P1;durP2;ratioP2;P2;SDS_P1;SDS_P2;PMS_P1;PMS_P2;Temp;Humidity;BMP_temperature;BMP_pressure;BME280_temperature;BME280_humidity;BME280_pressure;Samples;Min_cycle;Max_cycle;Signal;HPM_P1;HPM_P2
2022/11/24 00:02:10;;;;;;;15.93;5.00;;;7.60;99.90;;;;;;5003165;28;20117;-68
2022/11/24 00:04:36;;;;;;;11.10;4.23;;;7.60;99.90;;;;;;4983141;28;20037;-68
2022/11/24 00:07:01;;;;;;;12.90;4.90;;;7.50;99.90;;;;;;5008389;28;22886;-68
2022/11/24 00:09:27;;;;;;;10.50;3.77;;;7.60;99.90;;;;;;5000024;28;20408;-68
2022/11/24 00:11:52;;;;;;;9.83;3.67;;;7.50;99.90;;;;;;5002685;28;20563;-68
2022/11/24 00:14:18;;;;;;;8.33;4.43;;;7.50;99.90;;;;;;4998989;28;20399;-68
2022/11/24 00:16:44;;;;;;;8.88;4.00;;;7.50;99.90;;;;;;5000807;28;20040;-68
2022/11/24 00:19:10;;;;;;;9.93;4.87;;;7.50;99.90;;;;;;4999628;28;20073;-68
2022/11/24 00:21:37;;;;;;;9.93;4.17;;;7.50;99.90;;;;;;5005455;28;20038;-68
2022/11/24 00:24:02;;;;;;;10.95;4.72;;;7.50;99.90;;;;;;4998311;28;20349;-68
2022/11/24 00:26:31;;;;;;;9.30;4.03;;;7.50;99.90;;;;;;5000335;28;20037;-68
2022/11/24 00:28:59;;;;;;;11.52;4.00;;;7.40;99.90;;;;;;5006736;28;20096;-68
2022/11/24 00:31:27;;;;;;;7.88;3.10;;;7.50;99.90;;;;;;5003162;28;20199;-68
2022/11/24 00:33:55;;;;;;;10.43;3.97;;;7.50;99.90;;;;;;5018903;28;20042;-68
2022/11/24 00:36:22;;;;;;;11.55;3.80;;;7.40;99.90;;;;;;5001291;28;20048;-68
2022/11/24 00:38:53;;;;;;;15.20;3.92;;;7.50;99.90;;;;;;5003587;28;20467;-68
2022/11/24 00:41:19;;;;;;;10.60;3.30;;;7.50;99.90;;;;;;4995876;28;20043;-68
2022/11/24 00:43:44;;;;;;;13.87;4.33;;;7.50;99.90;;;;;;4995133;28;20042;-68
2022/11/24 00:46:10;;;;;;;8.10;2.87;;;7.40;99.90;;;;;;5001091;28;20072;-68
2022/11/24 00:48:36;;;;;;;13.00;4.10;;;7.50;99.90;;;;;;5000238;28;20038;-68
2022/11/24 00:51:08;;;;;;;16.17;4.40;;;7.50;99.90;;;;;;5000537;28;20050;-68
2022/11/24 00:53:34;;;;;;;14.98;4.03;;;7.40;99.90;;;;;;5001163;28;20049;-68
2022/11/24 00:56:02;;;;;;;11.43;3.33;;;7.40;99.90;;;;;;5006873;28;20043;-68
2022/11/24 00:58:28;;;;;;;14.75;3.10;;;7.40;99.90;;;;;;5006142;28;20423;-68
2022/11/24 01:00:55;;;;;;;8.25;3.72;;;7.50;99.90;;;;;;4999803;28;20330;-68
2022/11/24 01:03:21;;;;;;;12.40;3.15;;;7.40;99.90;;;;;;4999274;28;20046;-68
2022/11/24 01:05:47;;;;;;;14.90;4.13;;;7.40;99.90;;;;;;5006358;28;20049;-68
2022/11/24 01:08:13;;;;;;;10.85;3.72;;;7.50;99.90;;;;;;5002378;28;20052;-68
2022/11/24 01:10:39;;;;;;;16.33;3.00;;;7.50;99.90;;;;;;5005202;28;20552;-68
2022/11/24 01:13:06;;;;;;;17.73;3.53;;;7.50;99.90;;;;;;5006605;28;20400;-68
2022/11/24 01:15:33;;;;;;;;;;;7.50;99.90;;;;;;4979423;28;20057;-68
2022/11/24 01:17:58;;;;;;;10.45;3.25;;;7.50;99.90;;;;;;5004645;28;19921;-68
2022/11/24 01:20:24;;;;;;;10.87;3.30;;;7.60;99.90;;;;;;5000435;28;20104;-68
2022/11/24 01:22:50;;;;;;;16.20;3.13;;;7.60;99.90;;;;;;5000195;28;20422;-68
2022/11/24 01:25:15;;;;;;;11.77;3.23;;;7.60;99.90;;;;;;5001815;28;21612;-68
2022/11/24 01:27:41;;;;;;;19.10;4.10;;;7.60;99.90;;;;;;5002803;28;20427;-68
2022/11/24 01:30:08;;;;;;;9.87;2.77;;;7.60;99.90;;;;;;4997925;28;20042;-68
2022/11/24 01:32:35;;;;;;;12.88;3.35;;;7.60;99.90;;;;;;4995972;28;20052;-68
2022/11/24 01:35:04;;;;;;;10.25;3.30;;;7.60;99.90;;;;;;5000356;28;20049;-68
2022/11/24 01:37:30;;;;;;;;;;;7.60;99.90;;;;;;5000784;28;20111;-68
2022/11/24 01:39:55;;;;;;;14.25;3.88;;;7.60;99.90;;;;;;5001501;28;19921;-68
2022/11/24 01:42:21;;;;;;;11.13;2.87;;;7.70;99.90;;;;;;5014210;28;20108;-68
2022/11/24 01:44:50;;;;;;;15.03;2.83;;;7.70;99.90;;;;;;4995538;28;20053;-68
2022/11/24 01:47:22;;;;;;;10.43;2.45;;;7.70;99.90;;;;;;5000264;28;20504;-68
2022/11/24 01:49:56;;;;;;;9.77;2.78;;;7.70;99.90;;;;;;4998088;28;20035;-68
2022/11/24 01:52:35;;;;;;;8.73;2.90;;;7.70;99.90;;;;;;5005891;28;20547;-68
2022/11/24 01:55:06;;;;;;;14.43;2.53;;;7.70;99.90;;;;;;5003661;28;20042;-68
2022/11/24 01:57:37;;;;;;;12.90;2.92;;;7.70;99.90;;;;;;4998971;28;20113;-68
2022/11/24 02:00:10;;;;;;;14.20;2.70;;;7.70;99.90;;;;;;5000426;28;20077;-68
2022/11/24 02:02:35;;;;;;;16.17;3.38;;;7.70;99.90;;;;;;5002855;28;20042;-68
2022/11/24 02:05:25;;;;;;;14.45;2.78;;;7.70;99.90;;;;;;5002809;28;20710;-68
2022/11/24 02:07:52;;;;;;;12.07;3.28;;;7.70;99.90;;;;;;5003638;28;20042;-68
2022/11/24 02:10:19;;;;;;;9.02;2.42;;;7.80;99.90;;;;;;4995131;28;20068;-68
2022/11/24 02:12:47;;;;;;;17.80;4.03;;;7.80;99.90;;;;;;4991912;28;20123;-68
2022/11/24 02:15:14;;;;;;;13.43;2.35;;;7.80;99.90;;;;;;4999631;28;20058;-68
2022/11/24 02:17:42;;;;;;;11.55;2.75;;;7.80;99.90;;;;;;4998988;28;20060;-68
2022/11/24 02:20:09;;;;;;;8.50;2.47;;;7.80;99.90;;;;;;4993199;28;20041;-71
2022/11/24 02:22:58;;;;;;;12.93;2.10;;;7.80;99.90;;;;;;4999943;28;20038;-68
2022/11/24 02:25:33;;;;;;;14.65;2.25;;;7.80;99.90;;;;;;4992396;28;20224;-66
2022/11/24 02:28:01;;;;;;;9.80;1.92;;;7.80;99.90;;;;;;4998970;28;20042;-67
2022/11/24 02:30:27;;;;;;;11.02;2.30;;;7.80;99.90;;;;;;4993334;28;20034;-67
2022/11/24 02:32:53;;;;;;;7.82;1.95;;;7.80;99.90;;;;;;5000828;28;20044;-68
2022/11/24 02:35:19;;;;;;;16.05;2.60;;;7.70;99.90;;;;;;4995984;28;20403;-68
2022/11/24 02:37:45;;;;;;;11.05;2.28;;;7.70;99.90;;;;;;5002788;28;20096;-68
2022/11/24 02:40:15;;;;;;;10.03;2.70;;;7.70;99.90;;;;;;5002409;28;20430;-68
2022/11/24 02:42:45;;;;;;;13.30;2.45;;;7.70;99.90;;;;;;4993197;28;20068;-68
2022/11/24 02:45:11;;;;;;;7.38;2.00;;;7.70;99.90;;;;;;4995346;28;20049;-69
2022/11/24 02:47:37;;;;;;;;;;;7.70;99.90;;;;;;5001368;28;20400;-68
2022/11/24 02:50:03;;;;;;;14.10;1.85;;;7.70;99.90;;;;;;4994217;28;19917;-68
2022/11/24 02:52:29;;;;;;;14.60;2.17;;;7.70;99.90;;;;;;4992601;28;20149;-68
2022/11/24 02:54:54;;;;;;;12.83;2.57;;;7.70;99.90;;;;;;5000228;28;20038;-68
2022/11/24 02:57:22;;;;;;;5.50;2.50;;;7.70;99.90;;;;;;5001388;28;20081;-68
2022/11/24 02:59:47;;;;;;;14.45;2.22;;;7.70;99.90;;;;;;5004118;28;20038;-68
2022/11/24 03:02:13;;;;;;;12.53;2.07;;;7.80;99.90;;;;;;4988618;28;20039;-68
2022/11/24 03:04:39;;;;;;;6.47;2.20;;;7.70;99.90;;;;;;4997323;28;20356;-68
2022/11/24 03:07:04;;;;;;;9.67;2.87;;;7.80;99.90;;;;;;5017423;28;20284;-68
2022/11/24 03:09:30;;;;;;;10.90;2.07;;;7.80;99.90;;;;;;4999667;28;20084;-68
2022/11/24 03:11:56;;;;;;;13.27;2.08;;;7.70;99.90;;;;;;4994313;28;20059;-68
2022/11/24 03:14:22;;;;;;;11.43;2.00;;;7.80;99.90;;;;;;5001045;28;20056;-68
2022/11/24 03:16:47;;;;;;;8.47;1.93;;;7.70;99.90;;;;;;5009119;28;20053;-68
2022/11/24 03:19:13;;;;;;;10.73;2.40;;;7.70;99.90;;;;;;5002755;28;20038;-68
2022/11/24 03:21:39;;;;;;;12.40;2.67;;;7.80;99.90;;;;;;5000986;28;20121;-68
2022/11/24 03:24:05;;;;;;;12.17;2.60;;;7.80;99.90;;;;;;5007255;28;20045;-68
2022/11/24 03:26:33;;;;;;;9.27;1.80;;;7.80;99.90;;;;;;5005811;28;20038;-68
2022/11/24 03:28:58;;;;;;;9.52;2.22;;;7.80;99.90;;;;;;4997598;28;20487;-68
2022/11/24 03:31:24;;;;;;;5.20;1.93;;;7.80;99.90;;;;;;5004324;28;20038;-68
2022/11/24 03:33:50;;;;;;;9.57;2.30;;;7.80;99.90;;;;;;4999228;28;20046;-68
2022/11/24 03:36:16;;;;;;;13.43;2.50;;;7.80;99.90;;;;;;5007056;28;20037;-68
2022/11/24 03:38:41;;;;;;;7.00;1.67;;;7.70;99.90;;;;;;5006565;28;20053;-69
2022/11/24 03:41:07;;;;;;;9.07;1.90;;;7.70;99.90;;;;;;4998035;28;20037;-68
2022/11/24 03:43:33;;;;;;;7.63;1.63;;;7.70;99.90;;;;;;5005459;28;20050;-68
2022/11/24 03:45:58;;;;;;;9.67;2.00;;;7.70;99.90;;;;;;4998345;28;20565;-68
2022/11/24 03:48:24;;;;;;;13.10;1.77;;;7.70;99.90;;;;;;4997325;28;20504;-68
2022/11/24 03:50:54;;;;;;;10.25;2.75;;;7.70;99.90;;;;;;4997551;28;20242;-68
2022/11/24 03:53:21;;;;;;;6.75;2.20;;;7.60;99.90;;;;;;4998060;28;20069;-68
2022/11/24 03:55:46;;;;;;;8.77;1.77;;;7.70;99.90;;;;;;5005106;28;20038;-68
2022/11/24 03:58:12;;;;;;;9.67;1.90;;;7.70;99.90;;;;;;5004725;28;20052;-68
2022/11/24 04:00:38;;;;;;;11.70;2.03;;;7.70;99.90;;;;;;5001756;28;20104;-68
2022/11/24 04:03:04;;;;;;;14.30;2.65;;;7.70;99.90;;;;;;5004973;28;20287;-68
2022/11/24 04:05:30;;;;;;;15.27;2.80;;;7.60;99.90;;;;;;4996754;28;20046;-68
2022/11/24 04:07:56;;;;;;;9.23;2.30;;;7.60;99.90;;;;;;4999897;28;20037;-68
2022/11/24 04:10:24;;;;;;;;;;;7.60;99.90;;;;;;5007685;28;20049;-68
2022/11/24 04:12:50;;;;;;;9.18;1.48;;;7.60;99.90;;;;;;5003768;28;19917;-68
2022/11/24 04:15:18;;;;;;;7.60;1.67;;;7.60;99.90;;;;;;5001604;28;20096;-68
2022/11/24 04:17:45;;;;;;;12.48;1.88;;;7.60;99.90;;;;;;5000035;28;20708;-68
2022/11/24 04:20:12;;;;;;;5.53;2.47;;;7.60;99.90;;;;;;5000852;28;20046;-68
2022/11/24 04:22:38;;;;;;;7.88;1.65;;;7.60;99.90;;;;;;5002731;28;20118;-68
2022/11/24 04:25:05;;;;;;;6.72;1.50;;;7.60;99.90;;;;;;5002060;28;20052;-68
2022/11/24 04:27:35;;;;;;;12.75;2.30;;;7.60;99.90;;;;;;5000011;28;20061;-68
2022/11/24 04:32:28;;;;;;;10.23;1.58;;;7.50;99.90;;;;;;5000862;28;20042;-71
2022/11/24 04:34:53;;;;;;;11.53;2.30;;;7.50;99.90;;;;;;5005393;28;20049;-71
2022/11/24 04:37:19;;;;;;;10.00;1.97;;;7.50;99.90;;;;;;5005338;28;20038;-71
2022/11/24 04:39:45;;;;;;;10.00;2.10;;;7.50;99.90;;;;;;5001537;28;20535;-70
2022/11/24 04:42:11;;;;;;;5.80;1.63;;;7.50;99.90;;;;;;5002387;28;20052;-70
2022/11/24 04:44:37;;;;;;;12.23;2.95;;;7.40;99.90;;;;;;5001424;28;20321;-70
2022/11/24 04:47:03;;;;;;;10.38;2.10;;;7.40;99.90;;;;;;5002902;28;20217;-70
2022/11/24 04:49:29;;;;;;;17.23;2.17;;;7.40;99.90;;;;;;5001008;28;20332;-71
2022/11/24 04:51:54;;;;;;;11.30;1.77;;;7.40;99.90;;;;;;4998380;28;20140;-70
2022/11/24 04:54:20;;;;;;;6.67;2.30;;;7.40;99.90;;;;;;5003274;28;20508;-70
2022/11/24 04:56:50;;;;;;;13.33;1.80;;;7.30;99.90;;;;;;5004038;28;20038;-70
2022/11/24 04:59:16;;;;;;;10.57;2.20;;;7.40;99.90;;;;;;5006510;28;20129;-70
2022/11/24 05:01:44;;;;;;;11.77;1.95;;;7.30;99.90;;;;;;4999680;28;20045;-70
2022/11/24 05:04:10;;;;;;;9.27;1.80;;;7.30;99.90;;;;;;5000971;28;20458;-70
2022/11/24 05:06:36;;;;;;;10.43;2.20;;;7.30;99.90;;;;;;5000540;28;20529;-71
2022/11/24 05:09:03;;;;;;;10.88;1.70;;;7.30;99.90;;;;;;4998498;28;20038;-69
2022/11/24 05:11:28;;;;;;;10.20;2.10;;;7.30;99.90;;;;;;4996503;28;20361;-70
2022/11/24 05:13:54;;;;;;;8.97;1.80;;;7.30;99.90;;;;;;5009315;28;20053;-70
2022/11/24 05:16:20;;;;;;;8.43;2.13;;;7.20;99.90;;;;;;5000110;28;20088;-71
2022/11/24 05:18:45;;;;;;;6.13;1.83;;;7.30;99.90;;;;;;5001367;28;20421;-70
2022/11/24 05:21:11;;;;;;;11.80;1.70;;;7.20;99.90;;;;;;4998291;28;20096;-71
2022/11/24 05:23:36;;;;;;;13.30;2.47;;;7.20;99.90;;;;;;4997582;28;20503;-70
2022/11/24 05:26:03;;;;;;;10.23;2.10;;;7.20;99.90;;;;;;5009523;28;20301;-70
2022/11/24 05:28:29;;;;;;;7.03;2.00;;;7.20;99.90;;;;;;5001152;28;20396;-70
2022/11/24 05:31:00;;;;;;;7.53;1.48;;;7.20;99.90;;;;;;4995982;28;20045;-71
2022/11/24 05:33:28;;;;;;;14.23;2.20;;;7.20;99.90;;;;;;5003138;28;20084;-71
2022/11/24 05:35:55;;;;;;;9.95;2.22;;;7.20;99.90;;;;;;5005716;28;20511;-71
2022/11/24 05:38:22;;;;;;;5.18;1.52;;;7.20;99.90;;;;;;5010388;28;20095;-73
2022/11/24 05:40:48;;;;;;;11.70;2.20;;;7.20;99.90;;;;;;5002353;28;20088;-75
2022/11/24 05:43:15;;;;;;;5.00;1.57;;;7.10;99.90;;;;;;4995147;28;20066;-72
2022/11/24 05:45:41;;;;;;;10.40;2.28;;;7.10;99.90;;;;;;5003046;28;20033;-72
2022/11/24 05:48:12;;;;;;;10.07;1.73;;;7.20;99.90;;;;;;5001026;28;20034;-72
2022/11/24 05:50:38;;;;;;;11.73;1.95;;;7.10;99.90;;;;;;5005246;28;20172;-72
2022/11/24 05:53:06;;;;;;;7.30;1.88;;;7.10;99.90;;;;;;5000730;28;20052;-73
2022/11/24 05:55:32;;;;;;;7.80;1.70;;;7.10;99.90;;;;;;4997448;28;20248;-72
2022/11/24 05:58:03;;;;;;;6.93;1.70;;;7.20;99.90;;;;;;5001711;28;20129;-72
2022/11/24 06:00:30;;;;;;;13.25;2.42;;;7.20;99.90;;;;;;4983574;28;20050;-73
2022/11/24 06:02:57;;;;;;;7.57;1.42;;;7.20;99.90;;;;;;5003255;28;20385;-74
2022/11/24 06:05:24;;;;;;;13.35;2.05;;;7.20;99.90;;;;;;4997573;28;20393;-75
2022/11/24 06:07:51;;;;;;;10.43;1.92;;;7.20;99.90;;;;;;5001009;28;20037;-73
2022/11/24 06:10:18;;;;;;;8.07;1.90;;;7.10;99.90;;;;;;4984048;28;20041;-76
2022/11/24 06:12:44;;;;;;;9.07;2.10;;;7.20;99.90;;;;;;5000683;28;20045;-76
2022/11/24 06:15:10;;;;;;;8.68;1.38;;;7.20;99.90;;;;;;5002846;28;20287;-72
2022/11/24 06:17:37;;;;;;;6.82;1.85;;;7.20;99.90;;;;;;5001261;28;20069;-71
2022/11/24 06:20:03;;;;;;;;;;;7.20;99.90;;;;;;4998885;28;20507;-71
2022/11/24 06:22:29;;;;;;;7.82;1.77;;;7.20;99.90;;;;;;5001854;28;19964;-70
2022/11/24 06:24:55;;;;;;;8.32;2.35;;;7.20;99.90;;;;;;4990879;28;20080;-70
2022/11/24 06:27:21;;;;;;;9.82;1.50;;;7.20;99.90;;;;;;5004292;28;20468;-70
2022/11/24 06:29:47;;;;;;;5.73;1.60;;;7.20;99.90;;;;;;5006245;28;20403;-71
2022/11/24 06:32:12;;;;;;;8.67;1.60;;;7.20;99.90;;;;;;4998165;28;20126;-70
2022/11/24 06:34:38;;;;;;;21.13;2.67;;;7.20;99.90;;;;;;4997075;28;20076;-70
2022/11/24 06:37:04;;;;;;;9.27;1.83;;;7.20;99.90;;;;;;4995233;28;20283;-70
2022/11/24 06:39:30;;;;;;;9.82;1.80;;;7.30;99.90;;;;;;4999064;28;20126;-71
2022/11/24 06:41:56;;;;;;;10.87;1.20;;;7.20;99.90;;;;;;5003207;28;20090;-71
2022/11/24 06:44:21;;;;;;;3.13;1.20;;;7.20;99.90;;;;;;5002107;28;20042;-71
2022/11/24 06:46:47;;;;;;;6.63;1.87;;;7.30;99.90;;;;;;4994302;28;20042;-71
2022/11/24 06:49:13;;;;;;;10.23;1.67;;;7.30;99.90;;;;;;5003542;28;20041;-71
2022/11/24 06:51:38;;;;;;;4.47;1.33;;;7.30;99.90;;;;;;4998509;28;20034;-70
2022/11/24 06:54:08;;;;;;;6.87;1.13;;;7.30;99.90;;;;;;4987869;28;20038;-71
2022/11/24 06:56:34;;;;;;;6.97;1.42;;;7.30;99.90;;;;;;5005948;28;20530;-77
2022/11/24 06:59:01;;;;;;;12.25;1.65;;;7.30;99.90;;;;;;5000819;28;20046;-71
2022/11/24 07:01:28;;;;;;;10.13;1.73;;;7.40;99.90;;;;;;4990727;28;20046;-76
2022/11/24 07:03:55;;;;;;;6.70;2.38;;;7.30;99.90;;;;;;5005314;28;20068;-72
2022/11/24 07:06:21;;;;;;;;;;;7.40;99.90;;;;;;5003537;28;20046;-72
2022/11/24 07:08:47;;;;;;;7.72;1.50;;;7.30;99.90;;;;;;5005934;28;19917;-71
2022/11/24 07:11:21;;;;;;;7.10;1.98;;;7.30;99.90;;;;;;5001335;28;20129;-72
2022/11/24 07:13:49;;;;;;;5.72;1.42;;;7.30;99.90;;;;;;5004163;28;20225;-71
2022/11/24 07:16:22;;;;;;;9.52;1.48;;;7.30;99.90;;;;;;5003312;28;20045;-72
2022/11/24 07:18:50;;;;;;;12.75;2.80;;;7.20;99.90;;;;;;5001199;28;20045;-71
2022/11/24 07:21:16;;;;;;;8.25;1.70;;;7.30;99.90;;;;;;5004292;28;20050;-72
2022/11/24 07:23:42;;;;;;;4.72;1.83;;;7.30;99.90;;;;;;5004384;28;20402;-79
2022/11/24 07:26:09;;;;;;;8.00;2.10;;;7.30;99.90;;;;;;5000709;28;20183;-71
2022/11/24 07:28:35;;;;;;;5.25;1.75;;;7.30;99.90;;;;;;5002698;28;20065;-71
2022/11/24 07:31:09;;;;;;;5.43;1.63;;;7.30;99.90;;;;;;5003611;28;20034;-70
2022/11/24 07:33:35;;;;;;;10.50;1.73;;;7.30;99.90;;;;;;4998807;28;20065;-70
2022/11/24 07:36:03;;;;;;;7.72;1.50;;;7.30;99.90;;;;;;4999414;28;20034;-70
2022/11/24 07:38:30;;;;;;;8.57;2.50;;;7.30;99.90;;;;;;5000522;28;20796;-70
2022/11/24 07:41:06;;;;;;;14.02;2.47;;;7.30;99.90;;;;;;5003249;28;20286;-71
2022/11/24 07:43:34;;;;;;;8.52;1.90;;;7.30;99.90;;;;;;5005460;28;20094;-71
2022/11/24 07:46:00;;;;;;;4.65;2.13;;;7.30;99.90;;;;;;5007731;28;20052;-70
2022/11/24 07:48:28;;;;;;;10.03;2.47;;;7.30;99.90;;;;;;5001133;28;20042;-71
2022/11/24 07:50:57;;;;;;;10.20;2.38;;;7.30;99.90;;;;;;5004545;28;20041;-70
2022/11/24 07:53:23;;;;;;;12.48;2.53;;;7.30;99.90;;;;;;5009150;28;20484;-71
2022/11/24 07:55:59;;;;;;;6.10;2.47;;;7.30;99.90;;;;;;5002749;28;20132;-70
2022/11/24 07:58:29;;;;;;;7.57;2.50;;;7.30;99.90;;;;;;5002246;28;20033;-70
2022/11/24 08:00:55;;;;;;;7.38;2.60;;;7.30;99.90;;;;;;5006319;28;20076;-70
2022/11/24 08:03:21;;;;;;;7.07;2.40;;;7.30;99.90;;;;;;4995637;28;20232;-71
2022/11/24 08:05:58;;;;;;;12.23;2.20;;;7.30;99.90;;;;;;5001473;28;20053;-70
2022/11/24 08:08:24;;;;;;;8.40;3.13;;;7.30;99.90;;;;;;5002959;28;20411;-70
2022/11/24 08:10:50;;;;;;;8.90;2.47;;;7.40;99.90;;;;;;5008852;28;20217;-70
2022/11/24 08:13:16;;;;;;;7.38;2.25;;;7.30;99.90;;;;;;5007339;28;20251;-69
2022/11/24 08:15:42;;;;;;;6.47;2.33;;;7.30;99.90;;;;;;4978969;28;20046;-70
2022/11/24 08:18:07;;;;;;;6.93;2.17;;;7.40;99.90;;;;;;5008488;28;20045;-70
2022/11/24 08:20:33;;;;;;;9.50;2.30;;;7.40;99.90;;;;;;5006918;28;20517;-70
2022/11/24 08:22:59;;;;;;;8.60;2.60;;;7.40;99.90;;;;;;5004416;28;20092;-71
2022/11/24 08:25:32;;;;;;;11.52;2.40;;;7.40;99.90;;;;;;4998884;28;20341;-71
2022/11/24 08:27:58;;;;;;;6.32;2.53;;;7.40;99.90;;;;;;5005044;28;20570;-70
2022/11/24 08:30:24;;;;;;;10.13;2.70;;;7.40;99.90;;;;;;5009117;28;20392;-70
2022/11/24 08:32:50;;;;;;;6.65;2.75;;;7.50;99.90;;;;;;4989507;28;20053;-70
2022/11/24 08:35:15;;;;;;;10.83;2.77;;;7.40;99.90;;;;;;5008574;28;20502;-70
2022/11/24 08:37:41;;;;;;;7.43;2.80;;;7.50;99.90;;;;;;5007673;28;20046;-70
2022/11/24 08:40:07;;;;;;;10.97;2.33;;;7.50;99.90;;;;;;5006712;28;20148;-70
2022/11/24 08:42:33;;;;;;;7.60;2.63;;;7.60;99.90;;;;;;5008000;28;20050;-70
2022/11/24 08:44:58;;;;;;;7.83;2.43;;;7.60;99.90;;;;;;5002695;28;20086;-70
2022/11/24 08:47:24;;;;;;;10.90;2.90;;;7.70;99.90;;;;;;5001361;28;20416;-71
2022/11/24 08:49:50;;;;;;;7.77;2.03;;;7.70;99.90;;;;;;5006124;28;20030;-71
2022/11/24 08:52:15;;;;;;;6.13;2.10;;;7.70;99.90;;;;;;4996754;28;20030;-70
2022/11/24 08:54:43;;;;;;;3.87;1.77;;;7.80;99.90;;;;;;5006598;28;20038;-70
2022/11/24 08:57:12;;;;;;;6.93;2.10;;;7.80;99.90;;;;;;5004185;28;20268;-70
2022/11/24 08:59:38;;;;;;;9.88;1.90;;;7.80;99.90;;;;;;5006233;28;20070;-70
2022/11/24 09:02:04;;;;;;;8.53;2.70;;;7.80;99.90;;;;;;4995898;28;20084;-70
2022/11/24 09:04:30;;;;;;;5.85;1.60;;;7.80;99.90;;;;;;5002143;28;20041;-70
2022/11/24 09:06:56;;;;;;;9.27;1.73;;;7.80;99.90;;;;;;4997485;28;20132;-70
2022/11/24 09:09:22;;;;;;;5.18;1.50;;;7.90;99.90;;;;;;5004509;28;20188;-70
2022/11/24 09:11:48;;;;;;;9.47;1.83;;;7.90;99.90;;;;;;5004897;28;20565;-70
2022/11/24 09:14:14;;;;;;;8.70;1.60;;;8.00;99.90;;;;;;5002811;28;20230;-70
2022/11/24 09:16:40;;;;;;;7.43;1.55;;;8.10;99.90;;;;;;5002451;28;20660;-70
2022/11/24 09:19:06;;;;;;;4.82;2.22;;;8.10;99.90;;;;;;5004613;28;20049;-69
2022/11/24 09:21:36;;;;;;;7.28;1.20;;;8.10;99.90;;;;;;5002347;28;20715;-70
2022/11/24 09:24:03;;;;;;;5.57;1.23;;;8.10;99.90;;;;;;4985336;28;20494;-70
2022/11/24 09:26:29;;;;;;;;;;;8.20;99.90;;;;;;5002589;28;20065;-69
2022/11/24 09:28:56;;;;;;;4.45;1.50;;;8.20;99.90;;;;;;5002388;28;19925;-70
2022/11/24 09:31:25;;;;;;;7.70;1.30;;;8.20;99.90;;;;;;4997002;28;20100;-70
2022/11/24 09:33:52;;;;;;;5.60;1.42;;;8.20;99.90;;;;;;4993083;28;20050;-70
2022/11/24 09:36:18;;;;;;;7.80;1.23;;;8.30;99.90;;;;;;5005577;28;20042;-70
2022/11/24 09:38:44;;;;;;;6.47;1.48;;;8.30;99.90;;;;;;5002313;28;20082;-70
2022/11/24 09:41:38;;;;;;;5.23;1.23;;;8.30;99.90;;;;;;4999864;28;20118;-70
2022/11/24 09:44:22;;;;;;;6.28;1.40;;;8.40;99.90;;;;;;4974219;28;20104;-71
2022/11/24 09:46:55;;;;;;;5.10;1.98;;;8.40;99.90;;;;;;5004078;28;20492;-70
2022/11/24 09:49:40;;;;;;;2.42;0.80;;;8.50;99.90;;;;;;5001338;28;20494;-71
2022/11/24 09:52:13;;;;;;;8.20;1.50;;;8.50;99.90;;;;;;5000748;28;20049;-70
2022/11/24 09:54:56;;;;;;;5.80;1.27;;;8.60;99.90;;;;;;5006605;28;20086;-70
2022/11/24 09:57:25;;;;;;;7.28;1.33;;;8.60;99.90;;;;;;5008408;28;20116;-70
2022/11/24 09:59:51;;;;;;;3.13;1.40;;;8.60;99.90;;;;;;5004107;28;20038;-70
2022/11/24 10:02:16;;;;;;;3.27;1.17;;;8.70;99.90;;;;;;5000175;28;20041;-70
2022/11/24 10:04:45;;;;;;;4.90;1.30;;;8.70;99.90;;;;;;4999895;28;20132;-71
2022/11/24 10:07:10;;;;;;;5.15;1.65;;;8.80;99.90;;;;;;5006853;28;20042;-70
2022/11/24 10:09:48;;;;;;;3.40;1.10;;;8.90;99.90;;;;;;5000659;28;20616;-70
2022/11/24 10:12:21;;;;;;;6.65;1.67;;;8.90;99.90;;;;;;5003985;28;20042;-71
2022/11/24 10:14:59;;;;;;;5.43;1.30;;;9.00;99.90;;;;;;5001827;28;20519;-70
2022/11/24 10:17:31;;;;;;;3.65;1.20;;;9.10;99.90;;;;;;5005371;28;20045;-70
2022/11/24 10:20:26;;;;;;;5.80;1.33;;;9.10;99.90;;;;;;5011183;28;20089;-71
2022/11/24 10:23:16;;;;;;;6.57;1.10;;;9.20;99.90;;;;;;4980026;28;20096;-70
2022/11/24 10:25:56;;;;;;;6.35;1.27;;;9.30;99.90;;;;;;5006603;28;20045;-69
2022/11/24 10:28:28;;;;;;;2.65;1.40;;;9.40;99.90;;;;;;5005740;28;20065;-69
2022/11/24 10:31:12;;;;;;;3.88;1.48;;;9.40;99.90;;;;;;5019147;22;20048;-68
2022/11/24 10:33:38;;;;;;;9.35;1.92;;;9.50;99.90;;;;;;5025165;28;20108;-69
2022/11/24 10:36:13;;;;;;;3.42;1.60;;;9.60;99.90;;;;;;5021491;28;20060;-70
2022/11/24 10:38:51;;;;;;;4.60;1.80;;;9.70;99.90;;;;;;5026356;28;20402;-69
2022/11/24 10:41:35;;;;;;;4.95;1.75;;;9.80;99.90;;;;;;5002373;28;20052;-70
2022/11/24 10:44:00;;;;;;;7.60;1.90;;;9.90;99.90;;;;;;5020240;28;20046;-70
2022/11/24 10:46:27;;;;;;;7.57;1.83;;;9.90;99.90;;;;;;5022161;28;20057;-70
2022/11/24 10:48:59;;;;;;;4.25;2.15;;;10.00;99.90;;;;;;5008995;28;20038;-70
2022/11/24 10:51:49;;;;;;;8.05;1.88;;;10.00;99.90;;;;;;5009343;28;20045;-69
2022/11/24 10:54:21;;;;;;;8.32;2.05;;;10.10;99.90;;;;;;5015930;28;20495;-69
2022/11/24 10:56:50;;;;;;;3.78;1.50;;;10.20;99.90;;;;;;5019462;28;20103;-70
2022/11/24 10:59:39;;;;;;;6.40;1.90;;;10.20;99.90;;;;;;5015524;28;20364;-69
2022/11/24 11:02:26;;;;;;;5.28;1.80;;;10.30;99.90;;;;;;5021227;28;20445;-70
2022/11/24 11:04:52;;;;;;;5.70;1.98;;;10.30;99.90;;;;;;5014228;28;20042;-70
2022/11/24 11:07:21;;;;;;;3.60;1.90;;;10.40;99.90;;;;;;5016125;28;20124;-69
2022/11/24 11:09:47;;;;;;;8.27;2.00;;;10.40;99.90;;;;;;5030014;28;20414;-70
2022/11/24 11:12:30;;;;;;;8.50;2.03;;;10.50;99.90;;;;;;5018385;28;20125;-70
2022/11/24 11:15:23;;;;;;;4.60;1.50;;;10.50;99.90;;;;;;5015077;28;20077;-70
2022/11/24 11:17:51;;;;;;;6.85;1.90;;;10.60;99.90;;;;;;5019580;28;20281;-69
2022/11/24 11:20:21;;;;;;;9.07;1.52;;;10.60;99.90;;;;;;5026292;28;20045;-70
2022/11/24 11:22:48;;;;;;;7.32;1.83;;;10.80;99.90;;;;;;5024611;28;20042;-69
2022/11/24 11:25:34;;;;;;;5.72;1.42;;;10.80;99.90;;;;;;5020483;28;20033;-69
2022/11/24 11:28:17;;;;;;;4.63;1.50;;;10.80;99.90;;;;;;5026177;28;20133;-70
2022/11/24 11:30:59;;;;;;;8.27;1.95;;;10.90;99.90;;;;;;5020865;28;20049;-69
2022/11/24 11:33:28;;;;;;;7.00;1.67;;;10.80;99.90;;;;;;5017284;28;20052;-69
2022/11/24 11:35:56;;;;;;;8.32;1.73;;;10.90;99.90;;;;;;5026072;28;20047;-70
2022/11/24 11:38:25;;;;;;;7.25;1.73;;;10.90;99.90;;;;;;5026142;28;20477;-70
2022/11/24 11:40:51;;;;;;;7.90;1.55;;;11.00;99.90;;;;;;5021016;28;20503;-69
2022/11/24 11:43:28;;;;;;;5.45;1.55;;;11.00;99.90;;;;;;5018839;28;20542;-70
2022/11/24 11:46:25;;;;;;;5.22;1.58;;;11.10;99.90;;;;;;5006597;28;20143;-70
2022/11/24 11:48:51;;;;;;;5.18;1.10;;;11.20;99.90;;;;;;5005946;28;20152;-70
2022/11/24 11:51:26;;;;;;;9.00;2.05;;;11.20;99.90;;;;;;5019171;28;20041;-70
2022/11/24 11:54:23;;;;;;;10.63;2.42;;;11.30;99.90;;;;;;5017437;28;20407;-70
2022/11/24 11:56:59;;;;;;;7.88;1.60;;;11.30;99.90;;;;;;5033651;28;20128;-69
2022/11/24 11:59:47;;;;;;;6.75;2.17;;;11.40;99.90;;;;;;5011541;28;20053;-69
2022/11/24 12:02:30;;;;;;;9.50;1.63;;;11.40;99.90;;;;;;5032494;28;20076;-70
2022/11/24 12:05:00;;;;;;;4.50;1.52;;;11.50;99.90;;;;;;5016373;28;20025;-70
2022/11/24 12:07:40;;;;;;;7.50;1.67;;;11.50;99.90;;;;;;5018022;28;20395;-70
2022/11/24 12:10:29;;;;;;;8.05;1.45;;;11.60;99.90;;;;;;5023366;28;20052;-69
2022/11/24 12:13:39;;;;;;;5.85;1.75;;;11.70;99.90;;;;;;5012491;28;20052;-69
2022/11/24 12:16:46;;;;;;;6.85;1.38;;;11.80;99.90;;;;;;4921044;28;20119;-69
2022/11/24 12:19:55;;;;;;;8.32;1.38;;;11.90;99.90;;;;;;4924451;29;20051;-70
2022/11/24 12:22:33;;;;;;;3.35;0.90;;;11.90;99.90;;;;;;5021167;28;20313;-68
2022/11/24 12:25:12;;;;;;;12.38;1.65;;;12.00;99.90;;;;;;5025598;28;20037;-68
2022/11/24 12:27:57;;;;;;;13.40;1.70;;;12.00;99.90;;;;;;5029787;28;20394;-68
2022/11/24 12:30:23;;;;;;;5.68;1.33;;;12.00;99.90;;;;;;5018969;28;20034;-68
2022/11/24 12:33:01;;;;;;;4.90;1.08;;;12.00;99.90;;;;;;5022409;28;20089;-68
2022/11/24 12:35:35;;;;;;;4.55;1.20;;;12.10;99.90;;;;;;5019969;28;20398;-69
2022/11/24 12:38:26;;;;;;;7.32;1.30;;;12.10;99.90;;;;;;5013790;28;20474;-68
2022/11/24 12:41:17;;;;;;;8.60;1.70;;;12.20;99.90;;;;;;5019278;28;20124;-68
2022/11/24 12:43:52;;;;;;;4.40;1.35;;;12.20;99.90;;;;;;5016005;28;20037;-68
2022/11/24 12:46:54;;;;;;;7.05;1.55;;;12.20;99.90;;;;;;5019604;28;20176;-68
2022/11/24 12:49:42;;;;;;;4.95;1.65;;;12.20;99.90;;;;;;5012395;28;20124;-68
2022/11/24 12:52:25;;;;;;;7.85;1.63;;;12.10;99.90;;;;;;5027628;28;20482;-68
2022/11/24 12:54:52;;;;;;;7.57;1.10;;;12.10;99.90;;;;;;5016867;28;20063;-68
2022/11/24 12:57:48;;;;;;;4.28;1.08;;;12.10;99.90;;;;;;5030105;28;20145;-69
2022/11/24 13:00:18;;;;;;;5.45;1.35;;;12.00;99.90;;;;;;5022907;28;20053;-69
2022/11/24 13:03:08;;;;;;;4.90;1.40;;;11.90;99.90;;;;;;5014704;28;20224;-69
2022/11/24 13:05:52;;;;;;;7.93;1.15;;;11.80;99.90;;;;;;5023620;28;20120;-69
2022/11/24 13:08:18;;;;;;;6.15;1.10;;;11.70;99.90;;;;;;5017249;28;20033;-69
2022/11/24 13:10:44;;;;;;;7.47;1.42;;;11.70;99.90;;;;;;5021221;28;20048;-68